createdAt,value
2018-06-21T00:02:23.597Z,5.90
2018-06-21T00:04:52.132Z,6.30
2018-06-21T00:07:20.656Z,6.40
2018-06-21T00:09:49.167Z,6.23
2018-06-21T00:12:17.696Z,6.30
2018-06-21T00:14:46.240Z,5.87
2018-06-21T00:17:14.793Z,6.43
2018-06-21T00:19:43.336Z,5.87
2018-06-21T00:22:11.894Z,6.60
2018-06-21T00:24:40.413Z,6.53
2018-06-21T00:27:08.932Z,5.83
2018-06-21T00:29:37.114Z,6.70
2018-06-21T00:32:05.293Z,6.47
2018-06-21T00:34:33.859Z,6.50
2018-06-21T00:37:02.385Z,6.53
2018-06-21T00:39:30.918Z,6.50
2018-06-21T00:41:59.456Z,6.23
2018-06-21T00:44:28.026Z,5.50
2018-06-21T00:46:56.524Z,5.70
2018-06-21T00:49:25.045Z,5.73
2018-06-21T00:51:53.583Z,5.83
2018-06-21T00:54:22.115Z,5.80
2018-06-21T00:56:50.656Z,5.83
2018-06-21T00:59:19.179Z,5.70
2018-06-21T01:01:47.703Z,5.73
2018-06-21T01:04:16.259Z,5.83
2018-06-21T01:06:44.823Z,5.67
2018-06-21T01:09:13.393Z,6.17
2018-06-21T01:11:41.971Z,6.10
2018-06-21T01:14:10.128Z,6.10
2018-06-21T01:16:38.653Z,5.80
2018-06-21T01:19:07.211Z,5.60
2018-06-21T01:21:35.393Z,6.50
2018-06-21T01:24:03.967Z,7.07
2018-06-21T01:26:32.525Z,6.33
2018-06-21T01:29:01.079Z,6.63
2018-06-21T01:31:29.629Z,6.73
2018-06-21T01:33:58.214Z,6.80
2018-06-21T01:36:26.793Z,6.13
2018-06-21T01:38:55.349Z,6.37
2018-06-21T01:41:23.877Z,6.47
2018-06-21T01:43:52.427Z,6.07
2018-06-21T01:46:20.984Z,6.63
2018-06-21T01:48:49.528Z,6.40
2018-06-21T01:51:18.076Z,6.27
2018-06-21T01:53:46.617Z,6.20
2018-06-21T01:56:15.132Z,6.80
2018-06-21T01:58:43.665Z,6.60
2018-06-21T02:01:12.198Z,6.83
2018-06-21T02:03:40.412Z,6.30
2018-06-21T02:06:08.561Z,6.30
2018-06-21T02:08:37.086Z,6.80
2018-06-21T02:11:05.623Z,7.00
2018-06-21T02:13:34.144Z,6.50
2018-06-21T02:16:02.734Z,6.40
2018-06-21T02:18:31.257Z,6.03
2018-06-21T02:20:59.773Z,6.13
2018-06-21T02:23:27.944Z,6.77
2018-06-21T02:25:56.450Z,6.17
2018-06-21T02:28:24.991Z,6.33
2018-06-21T02:30:53.574Z,6.47
2018-06-21T02:33:22.107Z,5.93
2018-06-21T02:35:50.671Z,6.20
2018-06-21T02:38:19.198Z,6.10
2018-06-21T02:40:47.773Z,6.57
2018-06-21T02:43:16.285Z,6.27
2018-06-21T02:45:44.853Z,6.67
2018-06-21T02:48:13.386Z,6.50
2018-06-21T02:50:41.965Z,6.60
2018-06-21T02:53:10.479Z,6.47
2018-06-21T02:55:39.006Z,6.80
2018-06-21T02:58:07.577Z,6.63
2018-06-21T03:00:36.105Z,6.43
2018-06-21T03:03:04.667Z,6.63
2018-06-21T03:05:33.221Z,6.43
2018-06-21T03:08:01.930Z,6.50
2018-06-21T03:10:30.513Z,5.97
2018-06-21T03:12:59.030Z,5.80
2018-06-21T03:15:27.585Z,6.17
2018-06-21T03:17:56.101Z,5.70
2018-06-21T03:20:24.644Z,5.93
2018-06-21T03:22:52.823Z,6.13
2018-06-21T03:25:21.042Z,6.20
2018-06-21T03:27:49.613Z,6.07
2018-06-21T03:30:18.112Z,5.80
2018-06-21T03:32:46.649Z,5.90
2018-06-21T03:35:15.209Z,5.40
2018-06-21T03:37:43.726Z,5.60
2018-06-21T03:40:12.276Z,6.03
2018-06-21T03:42:40.790Z,5.83
2018-06-21T03:45:09.325Z,6.03
2018-06-21T03:47:37.874Z,5.80
2018-06-21T03:50:06.412Z,6.00
2018-06-21T03:52:34.956Z,6.30
2018-06-21T03:55:03.535Z,6.20
2018-06-21T03:57:32.071Z,6.43
2018-06-21T04:00:00.604Z,6.90
2018-06-21T04:02:29.166Z,5.87
2018-06-21T04:04:57.697Z,6.00
2018-06-21T04:07:25.902Z,5.90
2018-06-21T04:09:54.421Z,6.27
2018-06-21T04:12:22.956Z,6.30
2018-06-21T04:14:51.133Z,6.30
2018-06-21T04:17:19.671Z,6.47
2018-06-21T04:19:48.209Z,6.07
2018-06-21T04:22:16.751Z,6.70
2018-06-21T04:24:45.278Z,6.57
2018-06-21T04:27:13.827Z,6.40
2018-06-21T04:29:42.357Z,6.40
2018-06-21T04:32:10.858Z,6.57
2018-06-21T04:34:39.425Z,5.90
2018-06-21T04:37:07.985Z,6.20
2018-06-21T04:39:36.493Z,6.30
2018-06-21T04:42:04.685Z,6.43
2018-06-21T04:44:33.231Z,6.67
2018-06-21T04:47:01.805Z,6.60
2018-06-21T04:49:30.356Z,6.70
2018-06-21T04:51:58.881Z,6.47
2018-06-21T04:54:27.459Z,7.03
2018-06-21T04:56:55.983Z,6.93
2018-06-21T04:59:24.545Z,6.77
2018-06-21T05:01:53.107Z,6.83
2018-06-21T05:04:21.641Z,6.63
2018-06-21T05:06:50.183Z,6.33
2018-06-21T05:09:18.683Z,5.60
2018-06-21T05:11:47.223Z,5.90
2018-06-21T05:14:15.755Z,6.03
2018-06-21T05:16:44.291Z,5.87
2018-06-21T05:19:12.834Z,6.30
2018-06-21T05:21:41.373Z,6.70
2018-06-21T05:24:09.593Z,6.23
2018-06-21T05:26:38.138Z,6.00
2018-06-21T05:29:06.698Z,5.80
2018-06-21T05:31:35.273Z,5.73
2018-06-21T05:34:03.840Z,5.70
2018-06-21T05:36:32.425Z,6.40
2018-06-21T05:39:00.972Z,6.57
2018-06-21T05:41:29.166Z,6.07
2018-06-21T05:43:57.727Z,6.57
2018-06-21T05:46:25.905Z,6.30
2018-06-21T05:48:54.104Z,5.97
2018-06-21T05:51:22.623Z,6.10
2018-06-21T05:53:51.157Z,6.87
2018-06-21T05:56:19.421Z,6.80
2018-06-21T05:58:47.970Z,7.07
2018-06-21T06:01:16.502Z,7.43
2018-06-21T06:03:45.073Z,6.47
2018-06-21T06:06:13.690Z,7.27
2018-06-21T06:08:41.867Z,6.73
2018-06-21T06:11:10.442Z,6.30
2018-06-21T06:13:38.941Z,5.97
2018-06-21T06:16:07.149Z,5.90
2018-06-21T06:18:35.769Z,6.60
2018-06-21T06:21:04.359Z,5.77
2018-06-21T06:23:32.883Z,6.07
2018-06-21T06:26:01.396Z,5.60
2018-06-21T06:28:30.124Z,5.90
2018-06-21T06:30:58.830Z,5.47
2018-06-21T06:33:27.385Z,6.00
2018-06-21T06:35:56.787Z,6.10
2018-06-21T06:38:25.311Z,5.63
2018-06-21T06:40:53.928Z,6.00
2018-06-21T06:43:22.482Z,5.50
2018-06-21T06:45:51.170Z,6.10
2018-06-21T06:48:19.678Z,5.43
2018-06-21T06:50:48.216Z,5.53
2018-06-21T06:53:16.813Z,5.57
2018-06-21T06:55:45.364Z,5.50
2018-06-21T06:58:13.890Z,5.13
2018-06-21T07:00:42.443Z,5.10
2018-06-21T07:03:10.971Z,5.70
2018-06-21T07:05:39.482Z,4.90
2018-06-21T07:08:08.054Z,5.17
2018-06-21T07:10:36.523Z,4.70
2018-06-21T07:13:05.061Z,5.20
2018-06-21T07:15:33.615Z,5.17
2018-06-21T07:18:02.159Z,5.03
2018-06-21T07:20:30.703Z,4.53
2018-06-21T07:22:59.214Z,4.63
2018-06-21T07:25:27.755Z,5.10
2018-06-21T07:27:56.249Z,4.80
2018-06-21T07:30:24.771Z,4.87
2018-06-21T07:32:53.331Z,4.70
2018-06-21T07:35:21.837Z,5.20
2018-06-21T07:37:50.394Z,4.80
2018-06-21T07:40:18.911Z,4.57
2018-06-21T07:42:47.094Z,5.77
2018-06-21T07:45:15.635Z,4.40
2018-06-21T07:47:44.179Z,4.83
2018-06-21T07:50:12.736Z,4.60
2018-06-21T07:52:40.951Z,4.73
2018-06-21T07:55:09.465Z,4.90
2018-06-21T07:57:37.983Z,4.63
2018-06-21T08:00:06.540Z,4.77
2018-06-21T08:02:35.099Z,4.60
2018-06-21T08:05:03.734Z,4.30
2018-06-21T08:07:32.216Z,5.03
2018-06-21T08:10:00.785Z,4.97
2018-06-21T08:12:29.328Z,5.00
2018-06-21T08:14:57.562Z,5.10
2018-06-21T08:17:26.152Z,5.20
2018-06-21T08:19:54.672Z,5.07
2018-06-21T08:22:23.196Z,5.33
2018-06-21T08:24:51.748Z,4.60
2018-06-21T08:27:19.907Z,5.20
2018-06-21T08:29:48.460Z,5.47
2018-06-21T08:32:17.096Z,5.03
2018-06-21T08:34:45.412Z,5.03
2018-06-21T08:37:13.952Z,4.87
2018-06-21T08:39:42.434Z,4.97
2018-06-21T08:42:10.935Z,4.67
2018-06-21T08:44:39.500Z,4.50
2018-06-21T08:47:08.010Z,4.60
2018-06-21T08:49:36.540Z,4.97
2018-06-21T08:52:05.180Z,5.00
2018-06-21T08:54:33.662Z,4.97
2018-06-21T08:57:02.187Z,4.37
2018-06-21T08:59:30.775Z,4.07
2018-06-21T09:01:59.306Z,4.77
2018-06-21T09:04:27.808Z,4.57
2018-06-21T09:06:56.352Z,4.43
2018-06-21T09:09:24.880Z,4.23
2018-06-21T09:11:53.736Z,5.10
2018-06-21T09:14:22.295Z,5.00
2018-06-21T09:16:50.933Z,4.87
2018-06-21T09:19:19.453Z,5.40
2018-06-21T09:21:48.007Z,4.63
2018-06-21T09:24:16.505Z,4.80
2018-06-21T09:26:45.194Z,5.07
2018-06-21T09:29:13.750Z,5.40
2018-06-21T09:31:42.288Z,5.40
2018-06-21T09:34:10.780Z,4.90
2018-06-21T09:36:41.011Z,5.17
2018-06-21T09:39:15.841Z,4.42
2018-06-21T09:41:49.566Z,4.62
2018-06-21T09:44:23.533Z,4.60
2018-06-21T09:46:57.431Z,3.77
2018-06-21T09:49:30.029Z,4.22
2018-06-21T09:52:00.106Z,4.50
2018-06-21T09:54:28.724Z,3.80
2018-06-21T09:56:57.328Z,4.37
2018-06-21T09:59:25.836Z,4.30
2018-06-21T10:01:54.000Z,4.03
2018-06-21T10:04:22.176Z,4.10
2018-06-21T10:06:50.695Z,4.22
2018-06-21T10:09:19.260Z,3.87
2018-06-21T10:11:48.059Z,4.20
2018-06-21T10:14:16.658Z,4.05
2018-06-21T10:16:45.211Z,3.75
2018-06-21T10:19:13.384Z,3.80
2018-06-21T10:21:41.939Z,4.22
2018-06-21T10:24:10.444Z,4.05
2018-06-21T10:26:38.927Z,3.80
2018-06-21T10:29:07.460Z,4.08
2018-06-21T10:31:36.075Z,3.83
2018-06-21T10:34:04.639Z,4.00
2018-06-21T10:36:33.168Z,4.20
2018-06-21T10:39:01.691Z,4.22
2018-06-21T10:41:30.223Z,4.10
2018-06-21T10:43:58.726Z,3.85
2018-06-21T10:46:27.217Z,3.62
2018-06-21T10:48:55.702Z,3.90
2018-06-21T10:51:24.257Z,4.10
2018-06-21T10:53:52.767Z,3.37
2018-06-21T10:56:21.359Z,3.70
2018-06-21T10:58:49.904Z,3.70
2018-06-21T11:01:18.469Z,4.00
2018-06-21T11:03:47.195Z,4.00
2018-06-21T11:06:15.754Z,3.98
2018-06-21T11:08:44.348Z,4.17
2018-06-21T11:11:12.843Z,4.00
2018-06-21T11:13:41.346Z,3.70
2018-06-21T11:16:09.852Z,4.00
2018-06-21T11:18:38.387Z,4.10
2018-06-21T11:21:06.535Z,3.80
2018-06-21T11:23:35.103Z,3.70
2018-06-21T11:26:03.705Z,3.30
2018-06-21T11:28:32.274Z,3.55
2018-06-21T11:31:00.769Z,3.70
2018-06-21T11:33:29.324Z,3.50
2018-06-21T11:35:57.833Z,3.60
2018-06-21T11:38:26.323Z,3.60
2018-06-21T11:40:54.969Z,3.45
2018-06-21T11:43:23.189Z,3.87
2018-06-21T11:45:51.701Z,3.37
2018-06-21T11:48:20.282Z,3.72
2018-06-21T11:50:48.788Z,3.65
2018-06-21T11:53:17.316Z,3.50
2018-06-21T11:55:45.831Z,3.05
2018-06-21T11:58:14.345Z,3.60
2018-06-21T12:00:42.906Z,3.37
2018-06-21T12:03:11.451Z,3.50
2018-06-21T12:05:40.027Z,3.02
2018-06-21T12:08:08.523Z,3.08
2018-06-21T12:10:37.031Z,3.30
2018-06-21T12:13:05.689Z,3.75
2018-06-21T12:15:33.863Z,3.45
2018-06-21T12:18:02.026Z,3.27
2018-06-21T12:20:30.632Z,3.45
2018-06-21T12:22:59.158Z,3.10
2018-06-21T12:25:27.700Z,3.08
2018-06-21T12:27:56.251Z,3.20
2018-06-21T12:30:24.763Z,3.40
2018-06-21T12:32:53.332Z,3.67
2018-06-21T12:35:21.807Z,3.20
2018-06-21T12:37:50.319Z,3.37
2018-06-21T12:40:18.851Z,2.87
2018-06-21T12:42:47.365Z,3.40
2018-06-21T12:45:15.930Z,2.85
2018-06-21T12:47:44.479Z,3.33
2018-06-21T12:50:12.736Z,3.20
2018-06-21T12:52:41.239Z,3.27
2018-06-21T12:55:09.714Z,3.00
2018-06-21T12:57:38.265Z,3.00
2018-06-21T13:00:06.840Z,3.25
2018-06-21T13:02:35.342Z,3.35
2018-06-21T13:05:03.911Z,3.20
2018-06-21T13:07:32.440Z,3.12
2018-06-21T13:10:12.119Z,2.90
2018-06-21T13:12:52.297Z,2.83
2018-06-21T13:15:20.854Z,2.77
2018-06-21T13:17:49.321Z,2.70
2018-06-21T13:20:17.852Z,2.60
2018-06-21T13:22:46.396Z,2.90
2018-06-21T13:25:14.886Z,2.53
2018-06-21T13:27:43.386Z,2.50
2018-06-21T13:30:11.893Z,2.50
2018-06-21T13:32:40.427Z,2.73
2018-06-21T13:35:08.951Z,2.20
2018-06-21T13:37:37.488Z,2.50
2018-06-21T13:40:06.114Z,2.67
2018-06-21T13:42:34.282Z,2.37
2018-06-21T13:45:02.452Z,2.20
2018-06-21T13:47:31.018Z,2.37
2018-06-21T13:49:59.524Z,2.27
2018-06-21T13:52:28.061Z,2.12
2018-06-21T13:54:56.556Z,2.52
2018-06-21T13:57:25.074Z,2.37
2018-06-21T13:59:53.584Z,2.40
2018-06-21T14:02:21.747Z,2.22
2018-06-21T14:04:50.234Z,2.70
2018-06-21T14:07:18.844Z,2.75
2018-06-21T14:09:47.395Z,2.50
2018-06-21T14:12:15.930Z,2.22
2018-06-21T14:14:44.433Z,2.30
2018-06-21T14:17:12.943Z,2.30
2018-06-21T14:19:41.457Z,2.55
2018-06-21T14:22:09.972Z,2.35
2018-06-21T14:24:38.757Z,2.52
2018-06-21T14:27:06.931Z,2.60
2018-06-21T14:29:35.103Z,2.52
2018-06-21T14:32:03.287Z,2.30
2018-06-21T14:34:31.821Z,2.62
2018-06-21T14:37:00.356Z,2.70
2018-06-21T14:39:28.869Z,2.60
2018-06-21T14:41:57.392Z,2.75
2018-06-21T14:44:25.997Z,2.40
2018-06-21T14:46:54.586Z,2.42
2018-06-21T14:49:23.094Z,2.40
2018-06-21T14:51:51.361Z,2.20
2018-06-21T14:54:19.883Z,2.60
2018-06-21T14:56:48.436Z,2.22
2018-06-21T14:59:16.963Z,2.30
2018-06-21T15:01:45.460Z,2.50
2018-06-21T15:04:13.960Z,2.85
2018-06-21T15:06:42.655Z,2.35
2018-06-21T15:09:12.973Z,2.75
2018-06-21T15:11:41.539Z,2.30
2018-06-21T15:14:10.057Z,2.42
2018-06-21T15:16:38.590Z,2.65
2018-06-21T15:19:07.145Z,2.50
2018-06-21T15:21:35.659Z,2.37
2018-06-21T15:24:03.827Z,2.62
2018-06-21T15:26:32.359Z,2.60
2018-06-21T15:29:00.913Z,2.83
2018-06-21T15:31:29.381Z,2.80
2018-06-21T15:33:57.889Z,2.80
2018-06-21T15:36:26.076Z,2.80
2018-06-21T15:38:57.512Z,2.90
2018-06-21T15:41:27.072Z,2.80
2018-06-21T15:43:55.583Z,2.60
2018-06-21T15:46:24.129Z,2.40
2018-06-21T15:48:52.684Z,2.83
2018-06-21T15:51:20.857Z,2.70
2018-06-21T15:53:49.391Z,2.90
2018-06-21T15:56:17.897Z,2.80
2018-06-21T15:58:46.427Z,2.70
2018-06-21T16:01:15.013Z,2.43
2018-06-21T16:03:43.182Z,2.70
2018-06-21T16:06:11.691Z,2.60
2018-06-21T16:08:40.246Z,2.40
2018-06-21T16:11:08.768Z,2.10
2018-06-21T16:13:36.948Z,2.40
2018-06-21T16:16:05.494Z,2.40
2018-06-21T16:18:34.025Z,2.60
2018-06-21T16:21:02.575Z,2.37
2018-06-21T16:23:30.743Z,2.30
2018-06-21T16:25:59.257Z,2.70
2018-06-21T16:28:27.440Z,2.17
2018-06-21T16:30:55.977Z,2.43
2018-06-21T16:33:24.487Z,2.57
2018-06-21T16:35:52.980Z,2.33
2018-06-21T16:38:21.479Z,2.17
2018-06-21T16:40:49.692Z,2.40
2018-06-21T16:43:17.858Z,2.50
2018-06-21T16:45:46.356Z,2.30
2018-06-21T16:48:14.864Z,2.50
2018-06-21T16:50:43.351Z,1.83
2018-06-21T16:53:11.852Z,2.43
2018-06-21T16:55:40.426Z,2.30
2018-06-21T16:58:08.922Z,2.13
2018-06-21T17:00:37.432Z,2.20
2018-06-21T17:03:05.978Z,2.60
2018-06-21T17:05:34.488Z,1.93
2018-06-21T17:08:03.006Z,2.20
2018-06-21T17:10:31.583Z,2.60
2018-06-21T17:13:00.096Z,2.50
2018-06-21T17:15:28.571Z,2.60
2018-06-21T17:17:59.972Z,2.27
2018-06-21T17:20:28.501Z,2.20
2018-06-21T17:22:56.985Z,2.23
2018-06-21T17:25:26.095Z,2.47
2018-06-21T17:27:54.637Z,2.20
2018-06-21T17:30:23.188Z,2.50
2018-06-21T17:32:51.688Z,2.60
2018-06-21T17:35:20.243Z,2.53
2018-06-21T17:37:48.792Z,2.60
2018-06-21T17:40:17.315Z,2.30
2018-06-21T17:42:45.535Z,2.83
2018-06-21T17:45:14.135Z,2.83
2018-06-21T17:47:42.607Z,2.87
2018-06-21T17:50:11.183Z,3.20
2018-06-21T17:52:39.743Z,2.90
2018-06-21T17:55:08.315Z,2.77
2018-06-21T17:57:36.527Z,2.87
2018-06-21T18:00:05.050Z,2.93
2018-06-21T18:02:33.588Z,2.80
2018-06-21T18:05:02.159Z,2.83
2018-06-21T18:07:30.368Z,2.60
2018-06-21T18:09:58.888Z,3.33
2018-06-21T18:12:27.441Z,3.00
2018-06-21T18:14:56.038Z,2.67
2018-06-21T18:17:24.614Z,3.00
2018-06-21T18:19:53.165Z,2.97
2018-06-21T18:22:21.378Z,2.80
2018-06-21T18:24:49.954Z,3.10
2018-06-21T18:27:18.490Z,2.90
2018-06-21T18:29:47.011Z,3.47
2018-06-21T18:32:15.743Z,3.40
2018-06-21T18:34:44.280Z,3.13
2018-06-21T18:37:12.472Z,3.03
2018-06-21T18:39:41.006Z,3.00
2018-06-21T18:42:09.533Z,2.90
2018-06-21T18:44:38.122Z,3.00
2018-06-21T18:47:06.706Z,3.00
2018-06-21T18:49:35.273Z,2.70
2018-06-21T18:52:03.824Z,2.60
2018-06-21T18:54:32.354Z,2.87
2018-06-21T18:57:00.878Z,3.00
2018-06-21T18:59:29.396Z,2.87
2018-06-21T19:01:57.930Z,3.00
2018-06-21T19:04:26.474Z,3.40
2018-06-21T19:07:00.413Z,3.63
2018-06-21T19:09:34.255Z,3.60
2018-06-21T19:12:05.089Z,3.70
2018-06-21T19:14:33.256Z,3.33
2018-06-21T19:17:01.425Z,3.10
2018-06-21T19:19:30.033Z,3.10
2018-06-21T19:21:58.509Z,2.97
2018-06-21T19:24:26.731Z,2.83
2018-06-21T19:26:55.287Z,3.33
2018-06-21T19:29:23.776Z,3.20
2018-06-21T19:31:52.300Z,2.70
2018-06-21T19:34:20.850Z,2.77
2018-06-21T19:36:49.405Z,3.70
2018-06-21T19:39:17.932Z,3.77
2018-06-21T19:41:46.506Z,3.50
2018-06-21T19:44:15.069Z,3.93
2018-06-21T19:46:43.623Z,3.97
2018-06-21T19:49:12.192Z,4.07
2018-06-21T19:51:40.726Z,3.70
2018-06-21T19:54:09.308Z,3.57
2018-06-21T19:56:37.816Z,3.77
2018-06-21T19:59:06.005Z,3.37
2018-06-21T20:01:34.544Z,3.83
2018-06-21T20:04:03.131Z,3.80
2018-06-21T20:06:31.714Z,4.13
2018-06-21T20:09:00.320Z,5.67
2018-06-21T20:11:34.071Z,5.90
2018-06-21T20:14:02.576Z,4.70
2018-06-21T20:16:31.107Z,4.50
2018-06-21T20:19:07.684Z,4.30
2018-06-21T20:21:36.248Z,4.57
2018-06-21T20:24:04.814Z,5.50
2018-06-21T20:26:33.416Z,4.77
2018-06-21T20:29:01.980Z,5.03
2018-06-21T20:31:30.576Z,5.97
2018-06-21T20:33:59.122Z,4.73
2018-06-21T20:36:28.688Z,4.67
2018-06-21T20:38:57.220Z,5.30
2018-06-21T20:41:25.797Z,5.07
2018-06-21T20:43:54.303Z,5.30
2018-06-21T20:46:22.859Z,6.10
2018-06-21T20:48:51.437Z,5.50
2018-06-21T20:51:20.015Z,5.77
2018-06-21T20:53:48.588Z,5.83
2018-06-21T20:56:17.127Z,5.30
2018-06-21T20:58:45.633Z,6.20
2018-06-21T21:01:14.145Z,4.43
2018-06-21T21:03:42.708Z,5.40
2018-06-21T21:06:11.190Z,5.53
2018-06-21T21:08:39.729Z,4.00
2018-06-21T21:11:08.278Z,3.63
2018-06-21T21:13:36.819Z,3.77
2018-06-21T21:16:05.420Z,3.03
2018-06-21T21:18:33.663Z,2.77
2018-06-21T21:21:02.212Z,4.10
2018-06-21T21:23:30.801Z,4.37
2018-06-21T21:25:59.350Z,4.30
2018-06-21T21:28:27.957Z,4.50
2018-06-21T21:30:56.492Z,4.70
2018-06-21T21:33:25.024Z,4.47
2018-06-21T21:35:53.635Z,4.53
2018-06-21T21:38:22.173Z,4.30
2018-06-21T21:40:50.724Z,4.73
2018-06-21T21:43:19.258Z,4.63
2018-06-21T21:45:47.775Z,4.40
2018-06-21T21:48:16.361Z,4.93
2018-06-21T21:50:44.560Z,5.23
2018-06-21T21:53:13.152Z,5.80
2018-06-21T21:55:41.711Z,5.33
2018-06-21T21:58:10.257Z,5.63
2018-06-21T22:00:49.166Z,5.73
2018-06-21T22:03:17.714Z,5.60
2018-06-21T22:05:46.288Z,5.50
2018-06-21T22:08:14.543Z,4.50
2018-06-21T22:10:44.148Z,3.87
2018-06-21T22:13:13.233Z,4.27
2018-06-21T22:15:42.004Z,3.90
2018-06-21T22:18:10.629Z,3.50
2018-06-21T22:20:39.519Z,4.03
2018-06-21T22:23:08.067Z,4.43
2018-06-21T22:25:36.777Z,4.00
2018-06-21T22:28:05.312Z,3.67
2018-06-21T22:30:33.499Z,3.13
2018-06-21T22:33:02.059Z,3.50
2018-06-21T22:35:30.612Z,3.40
2018-06-21T22:37:59.198Z,3.53
2018-06-21T22:40:27.709Z,3.60
2018-06-21T22:42:56.275Z,3.70
2018-06-21T22:45:24.825Z,3.70
2018-06-21T22:47:53.372Z,3.47
2018-06-21T22:50:21.893Z,3.83
2018-06-21T22:52:50.440Z,3.50
2018-06-21T22:55:18.950Z,3.60
2018-06-21T22:57:47.460Z,3.70
2018-06-21T23:00:16.903Z,3.40
2018-06-21T23:02:45.601Z,4.23
2018-06-21T23:05:14.235Z,3.77
2018-06-21T23:07:42.427Z,3.40
2018-06-21T23:10:11.008Z,3.90
2018-06-21T23:12:39.198Z,3.43
2018-06-21T23:15:07.738Z,3.23
2018-06-21T23:17:36.232Z,3.43
2018-06-21T23:20:04.796Z,3.23
2018-06-21T23:22:33.338Z,3.50
2018-06-21T23:25:01.872Z,3.50
2018-06-21T23:27:30.428Z,3.30
2018-06-21T23:29:58.946Z,2.70
2018-06-21T23:32:27.494Z,3.00
2018-06-21T23:34:56.056Z,2.93
2018-06-21T23:37:24.611Z,2.80
2018-06-21T23:39:53.148Z,2.90
2018-06-21T23:42:21.708Z,2.87
2018-06-21T23:44:50.268Z,2.93
2018-06-21T23:47:18.768Z,2.97
2018-06-21T23:49:48.192Z,3.00
2018-06-21T23:52:16.710Z,2.77
2018-06-21T23:54:45.278Z,3.17
2018-06-21T23:57:13.796Z,3.47
2018-06-21T23:59:42.335Z,3.23
